Tiempo atmosférico en la estación meteorológica de Écija, Sevilla (130 m.)



Fecha
DESCASC
Temp. máxima en grados centígrados (hora)
DESCASC
Temp. mínima en grados centígrados (hora)
DESCASC
Temp. media en grados centígrados
DESCASC
Racha de viento máxima en m/sg (hora)
DESCASC
Velocidad máxima media en intervalos de 10 minutos(hora)
DESCASC
Precipitaciones diarias en mm
DESCASC
Precipitaciones de 00:00 a 06:00 en mm
DESCASC
Precipitaciones de 06:00 a 12:00 en mm
DESCASC
Precipitaciones de 12:00 a 18:00 en mm
DESCASC
Precipitaciones de 18:00 a 24:00 en mm
DESCASC
23-05-2018 27.5 (17:30) 12.5 (07:10) 20 6.39 (15:10) 3.61 (21:50) 0 0 0 0 0
22-05-2018 26.7 (18:30) 12.8 (03:50) 19.8 7.78 (01:40) 4.72 (01:40) 0 0 0 0 0
21-05-2018 24.9 (17:40) 13 (05:20) 18.9 12.22 (19:20) 4.72 (18:00) 24.1 0 0.2 0 23.9
20-05-2018 24.8 (17:00) 11.7 (00:00) 18.2 10.83 (19:00) 7.5 (19:10) 12.8 0 0 0 12.8
19-05-2018 28.6 (16:10) 13.9 (07:00) 21.3 11.67 (16:30) 7.22 (16:40) 6.3 0 0 5.5 0.8
18-05-2018 26.6 (15:40) 12.3 (00:00) 19.5 11.67 (16:30) 7.78 (16:40) 2.4 0 0 2.4 0
17-05-2018 29.5 (17:50) 10.6 (00:00) 20.1 9.72 (20:20) 6.11 (21:20) 0 0 0 0 0
16-05-2018 30.4 (18:50) 11 (00:00) 20.7 8.89 (19:30) 6.39 (19:40) 0 0 0 0 0
15-05-2018 28.8 (18:30) 11.2 (00:00) 20 7.5 (16:00) 4.17 (16:00) 0 0 0 0 0
14-05-2018 26.7 (18:20) 6.5 (00:00) 16.6 7.78 (14:00) 4.17 (11:20) 0 0 0 0 0
13-05-2018 23.8 (19:40) 7.6 (00:00) 15.7 7.5 (03:40) 5.28 (05:30) 0 0 0 0 0
12-05-2018 24.2 (16:30) 11.2 (00:00) 17.7 11.11 (18:30) 6.67 (19:10) 0 0 0 0 0
11-05-2018 25.6 (16:10) 9.5 (05:40) 17.6 9.17 (17:40) 5.83 (23:30) 0 0 0 0 0
10-05-2018 24.5 (16:30) 14.5 (00:00) 19.5 8.33 (00:10) 5.83 (00:10) 0 0 0 0 0
09-05-2018 20.8 (15:30) 14.6 (00:00) 17.7 9.72 (15:30) 6.11 (23:59) 0 0 0 0 0
08-05-2018 27 (15:40) 12.1 (00:00) 19.6 10.83 (00:20) 6.11 (01:10) 0 0 0 0 0
07-05-2018 28.3 (18:00) 11.1 (00:00) 19.7 8.33 (23:30) 5 (23:59) 0 0 0 0 0
06-05-2018 27.6 (16:50) 11.6 (00:00) 19.6 9.17 (18:50) 5 (03:40) 0.1 0 0 0.1 0
05-05-2018 27.3 (19:20) 9.4 (00:00) 18.3 6.67 (23:00) 4.72 (22:50) 0 0 0 0 0
04-05-2018 25.1 (16:10) 10.2 (00:00) 17.7 8.89 (19:50) 5.56 (19:50) 0 0 0 0 0
03-05-2018 24.5 (18:30) 6.3 (00:00) 15.4 6.94 (00:10) 4.72 (23:20) 0 0 0 0 0
02-05-2018 22.8 (15:10) 4.8 (00:00) 13.8 9.44 (22:20) 5.56 (22:20) 0 0 0 0 0
01-05-2018 17.2 (14:00) 5.6 (07:40) 11.4 11.39 (14:30) 5.56 (00:10) 8.8 0 0 8.8 0
30-04-2018 18 (16:20) 6.8 (00:00) 12.4 9.17 (17:50) 5.56 (23:59) 0 0 0 0 0
29-04-2018 19.2 (16:30) 6.8 (00:00) 13 14.72 (18:30) 8.06 (16:50) 0.1 0.1 0 0 0
28-04-2018 20.2 (16:20) 11 (00:00) 15.6 11.67 (17:00) 6.94 (17:00) 0 0 0 0 0

Gráficas

Temp. máximas Temp. mínimas Temp. medias Precipitaciones Rachas de viento máximas Velocidades máximas media en intervalos de 10 minutos

Datos horarios

Fecha y hora oficial Temperatura (ºC) Velocidad del viento (km/h) Dirección del viento Racha (km/h) Dirección de racha Precipitación (mm) Presión (hPa) Tendencia (hPa) Humedad (%)
2018-05-27 23:00:00 17.3 14 Oeste 27 Oeste 0 1001.3 2.2 68
2018-05-27 22:00:00 18.5 17 Sudoeste 26 Oeste 0 1000.4 1.6 58
2018-05-27 21:00:00 21.1 13 Oeste 30 Sudoeste 0 1000 0.8 49
2018-05-27 20:00:00 23 17 Oeste 35 Sudoeste 0 999.1 0 45
2018-05-27 19:00:00 24.4 18 Oeste 32 Sudoeste 0 998.8 -0.8 43
2018-05-27 18:00:00 24.5 16 Oeste 31 Oeste 0 999.2 -1.1 44
2018-05-27 17:00:00 23.7 17 Oeste 31 Oeste 0 999.1 -1.4 47
2018-05-27 16:00:00 23.9 12 Oeste 27 Oeste 0 999.6 -1.4 48
2018-05-27 15:00:00 23 10 Oeste 23 Oeste 0 1000.3 -1 48
2018-05-27 14:00:00 22.2 14 Oeste 24 Oeste 0 1000.5 -0.5 54
2018-05-27 13:00:00 20.9 8 Noroeste 17 Oeste 0 1001 0.3 62
2018-05-27 12:00:00 19.6 10 Oeste 21 Sudoeste 0 1001.3 0.8 68
2018-05-27 11:00:00 18.7 8 Oeste 18 Sudoeste 0 1001 1 76
2018-05-27 10:00:00 17.7 8 Sudoeste 15 Oeste 0 1000.7 1.2 90
2018-05-27 09:00:00 15.4 3 Sur 9 Sudoeste 0 1000.5 1.3 99
2018-05-27 08:00:00 13.9 7 Sudoeste 9 Sudoeste 0 1000 0.9 99
2018-05-27 07:00:00 13.2 0 Calma 9 Sudoeste 0 999.5 0.6 99
2018-05-27 06:00:00 13.6 4 Sur 8 Sur 0 999.2 0 98
2018-05-27 05:00:00 13.8 4 Sudeste 9 Sudoeste 0 999.1 0 95
2018-05-27 04:00:00 14.8 2 Sudoeste 14 Sudoeste 0 998.9 0.4 93
2018-05-27 03:00:00 15.8 8 Sudoeste 28 Sudoeste 0 999.2 0.4 87
2018-05-27 02:00:00 16 13 Sudoeste 21 Sudoeste 0 999.1 1 85
2018-05-27 01:00:00 17 9 Oeste 18 Oeste 0 998.5 0.8 76
2018-05-27 00:00:00 17.4 0 Calma 18 Oeste 0 998.8 1.6 69
2018-05-26 23:00:00 19.3 12 Oeste 20 Oeste 0 998.1 1.1 61
2018-05-26 22:00:00 19 9 Oeste 14 Oeste 0 997.7 1 61
2018-05-26 21:00:00 21.9 10 Noroeste 21 Noroeste 0 997.2 0.2 49
2018-05-26 20:00:00 24 12 Noroeste 21 Noroeste 0 997 -0.3 46
2018-05-26 19:00:00 25.1 12 Oeste 22 Oeste 0 996.7 -0.8 42
2018-05-26 18:00:00 24.5 12 Oeste 19 Noroeste 0 997 -0.8 43
2018-05-26 17:00:00 24.6 8 Noroeste 19 Oeste 0 997.3 -1.1 43
2018-05-26 16:00:00 24.8 6 Oeste 15 Oeste 0 997.5 -1.2 43
2018-05-26 15:00:00 23.8 6 Oeste 16 Noroeste 0 997.8 -0.6 44
2018-05-26 14:00:00 23.1 6 Oeste 16 Sudoeste 0 998.4 -0.3 46
2018-05-26 13:00:00 22.7 5 Sudeste 13 Este 0 998.7 -0.6 50
2018-05-26 12:00:00 21.4 6 Sudeste 15 Sudeste 0 998.4 -0.9 55
2018-05-26 11:00:00 19.7 4 Sudeste 9 Sudeste 0 998.7 -0.6 65
2018-05-26 10:00:00 18.3 3 Sudeste 8 Sudeste 0 999.3 0.5 73
2018-05-26 09:00:00 16.3 0 Calma 4 Sur 0 999.3 0.7 87
2018-05-26 08:00:00 12.4 5 Sur 7 Sudoeste 0 999.3 0.9 99
2018-05-26 07:00:00 11.2 0 Calma 6 Sudeste 0 998.8 0.1 98
2018-05-26 06:00:00 11.4 0 Calma 5 Sudeste 0 998.6 -0.5 96
2018-05-26 05:00:00 12.3 3 Sur 6 Sudeste 0 998.4 -0.9 97
2018-05-26 04:00:00 12 4 Sudeste 6 Sudeste 0 998.7 -0.9 94
2018-05-26 03:00:00 13 2 Sudeste 12 Sudoeste 0 999.1 -0.7 90
2018-05-26 02:00:00 13.9 7 Sudoeste 12 Sudoeste 0 999.3 -0.1 89
2018-05-26 01:00:00 14.6 7 Sudoeste 9 Sudoeste 0 999.6 1.3 83
2018-05-26 00:00:00 16.1 5 Oeste 13 Oeste 0 999.8 1.9 73
2018-05-25 23:00:00 16.3 6 Oeste 17 Oeste 0 999.4 2 68
2018-05-25 22:00:00 17.5 9 Oeste 17 Oeste 0 998.3 0.9 62
2018-05-25 21:00:00 19.9 6 Oeste 25 Oeste 0 997.9 0.4 54
2018-05-25 20:00:00 21.7 14 Oeste 27 Oeste 0 997.4 -0.4 51
2018-05-25 19:00:00 21.5 14 Sudoeste 28 Sudoeste 0 997.4 -0.8 52
2018-05-25 18:00:00 21.4 14 Sudoeste 26 Sudoeste 0 997.5 -1.3 52
2018-05-25 17:00:00 22.4 12 Sudoeste 27 Sudoeste 0 997.8 -0.7 50
2018-05-25 16:00:00 21.8 12 Sudoeste 22 Sudoeste 0.1 998.2 -0.4 57
2018-05-25 15:00:00 18.2 16 Sudoeste 28 Oeste 0.4 998.8 -0.3 81
2018-05-25 14:00:00 19.7 15 Oeste 23 Oeste 0 998.5 -0.9 57
2018-05-25 13:00:00 20.9 5 Oeste 18 Sudoeste 0 998.6 -1.1 54
2018-05-25 12:00:00 19.3 10 Sudoeste 18 Sur 0 999.1 -0.3 60
2018-05-25 11:00:00 17.9 5 Sudoeste 17 Sur 0 999.4 0.3 68
2018-05-25 10:00:00 16.8 2 Sudeste 7 Sur 0 999.7 1 83
2018-05-25 09:00:00 15 2 Sudeste 6 Sur 0 999.4 0.6 97
2018-05-25 08:00:00 13.4 0 Calma 4 Sudeste 0 999.1 0.2 98
2018-05-25 07:00:00 12.5 0 Calma 6 Este 0 998.7 -0.6 98
2018-05-25 06:00:00 12.9 4 Sudoeste 6 Sudoeste 0 998.8 -0.9 97
2018-05-25 05:00:00 13.1 2 Sudoeste 3 Sudoeste 0 998.9 -0.9 97
2018-05-25 04:00:00 12.5 3 Sudeste 5 Sudoeste 0 999.3 -1 95
2018-05-25 03:00:00 13.1 0 Calma 5 Sur 0 999.7 -0.9 94
2018-05-25 02:00:00 13.7 4 Sudoeste 13 Sudoeste 0 999.8 -0.5 91
2018-05-25 01:00:00 13.1 4 Sur 10 Oeste 0 1000.3 0.8 90
2018-05-25 00:00:00 13.8 9 Sudoeste 12 Sudoeste 0 1000.6 1.3 84
2018-05-24 23:00:00 14.4 6 Oeste 13 Sudoeste 0 1000.3 1.7 79
2018-05-24 22:00:00 15.5 6 Sudoeste 21 Sudoeste 0 999.5 1.6 70
2018-05-24 21:00:00 17 12 Oeste 27 Oeste 0 999.3 1.9 63
2018-05-24 20:00:00 19 16 Oeste 40 Oeste 0 998.6 1.4 57
2018-05-24 19:00:00 20.4 24 Oeste 39 Sudoeste 0 997.9 0.6 55
2018-05-24 18:00:00 21.2 22 Oeste 39 Oeste 0 997.4 0.1 53
2018-05-24 17:00:00 22.4 20 Oeste 36 Oeste 0 997.2 -0.1 55
2018-05-24 16:00:00 23.1 17 Oeste 39 Oeste 0 997.3 -0.2 53
2018-05-24 15:00:00 23.2 20 Oeste 40 Oeste 0 997.3 -0.3 57
2018-05-24 14:00:00 24 14 Oeste 29 Sudoeste 0 997.3 -0.6 52
2018-05-24 13:00:00 23.7 12 Oeste 26 Oeste 0 997.5 -0.5 52
2018-05-24 12:00:00 22.7 15 Oeste 25 Oeste 0 997.6 -0.5 54
2018-05-24 11:00:00 22 9 Oeste 17 Sudoeste 0 997.9 -0.3 59
2018-05-24 10:00:00 19.8 8 Sudoeste 15 Sur 0 998 -0.4 69
2018-05-24 09:00:00 17.5 5 Sur 7 Sur 0 998.1 0 88
2018-05-24 08:00:00 15.5 3 Sur 7 Sudoeste 0 998.2 -0.2 95
2018-05-24 07:00:00 15.3 5 Sudoeste 9 Sudoeste 0 998.4 0 93
2018-05-24 06:00:00 15.4 2 Sur 8 Sudeste 0 998.1 -0.6 93
2018-05-24 05:00:00 16.3 2 Sur 8 Sudoeste 0.6 998.4 -0.5 89
2018-05-24 04:00:00 16.8 0 Calma 16 Sudoeste 0 998.4 -0.8 78
2018-05-24 03:00:00 17.1 7 Oeste 28 Oeste 0 998.7 -0.4 73
2018-05-24 02:00:00 18.1 14 Oeste 26 Oeste 0 998.9 0 73
2018-05-24 01:00:00 18.9 7 Sudoeste 17 Sudoeste 0 999.2 0.7 75
2018-05-24 00:00:00 19.3 2 Oeste 12 Sudoeste 0 999.1 0.8 62
2018-05-23 23:00:00 20.7 10 Sudoeste 17 Sudoeste 0 998.9 0.9 51
2018-05-23 22:00:00 22.3 10 Sudoeste 17 Sudoeste 0 998.5 0.4 46
2018-05-23 21:00:00 24.5 0 Calma 8 Nordeste 0 998.3 0.2 54
2018-05-23 20:00:00 25.6 5 Este 11 Este 0 998 -0.5 45
2018-05-23 19:00:00 25.6 6 Este 15 Este 0 998.1 -0.8 41
2018-05-23 18:00:00 26.9 8 Este 17 Este 0 998.1 -1.4 37
2018-05-23 17:00:00 26.4 7 Este 15 Nordeste 0 998.5 -1.4 36
2018-05-23 16:00:00 26.4 8 Nordeste 23 Sudeste 0 998.9 -1.4 33
2018-05-23 15:00:00 26 3 Sudeste 14 Este 0 999.5 -0.9 35
2018-05-23 14:00:00 24.7 7 Este 22 Sudeste 0 999.9 -0.7 37
2018-05-23 13:00:00 24.6 11 Sudeste 18 Sudeste 0 1000.3 -0.5 44
2018-05-23 12:00:00 23.4 4 Este 10 Nordeste 0 1000.4 -0.3 52
2018-05-23 11:00:00 20.9 3 Sur 9 Este 0 1000.6 0.2 65
2018-05-23 10:00:00 18.5 3 Nordeste 7 Este 0 1000.8 0.9 74
2018-05-23 09:00:00 15.8 0 Calma 0 Calma 0 1000.7 1.2 87
2018-05-23 08:00:00 13.5 0 Calma 4 Sur 0 1000.4 0.8 96
2018-05-23 07:00:00 12.6 3 Sudoeste 10 Sur 0 999.9 0.3 96
2018-05-23 06:00:00 13 0 Calma -- -- -- 999.5 -0.3 95
2018-05-23 05:00:00 13.4 0 Calma 6 Sur 0 999.6 -0.5 91
2018-05-23 04:00:00 13.6 3 Sur 8 Sudeste 0 999.6 -0.5 90
2018-05-23 03:00:00 14.4 4 Sur 9 Sudeste 0 999.8 -0.2 87
2018-05-23 02:00:00 15.6 0 Calma 6 Sur 0 1000.1 0.7 80
2018-05-23 01:00:00 17.2 4 Sudeste 7 Nordeste 0 1000.1 1.5 69
2018-05-23 00:00:00 17.9 0 Calma 15 Oeste 0 1000 1.5 63
2018-05-22 23:00:00 19.3 12 Oeste 14 Oeste 0 999.4 1.2 57
2018-05-22 22:00:00 20.4 10 Oeste 12 Oeste 0 998.6 0.4 54
2018-05-22 21:00:00 23.4 6 Noroeste 10 Noroeste 0 998.5 0.1 51
2018-05-22 20:00:00 24.4 5 Norte 14 Noroeste 0 998.2 -0.5 44
2018-05-22 19:00:00 25.1 6 Norte 14 Norte 0 998.2 -1 40
2018-05-22 18:00:00 26.4 0 Calma 10 Este 0 998.4 -1.2 40
2018-05-22 17:00:00 25.5 2 Oeste 9 Oeste 0 998.7 -1.3 43
2018-05-22 16:00:00 24.5 2 Oeste 12 Sudeste 0 999.2 -1.5 45
2018-05-22 15:00:00 23.3 2 Nordeste 11 Nordeste 0 999.6 -1.5 54
2018-05-22 14:00:00 21.1 3 Norte 13 Norte 0 1000 -1 65
2018-05-22 13:00:00 18.6 6 Noroeste 13 Noroeste 0 1000.7 -0.3 77
2018-05-22 12:00:00 17.1 4 Sudeste 12 Este 0 1001.1 0.4 83
2018-05-22 11:00:00 15.2 5 Nordeste 8 Nordeste 0 1001 0.8 90
2018-05-22 10:00:00 14.8 4 Nordeste 8 Nordeste 0 1001 1.1 92
2018-05-22 09:00:00 14.5 0 Calma 10 Este 0 1000.7 1.1 94
2018-05-22 08:00:00 14.1 3 Sudeste 8 Oeste 0 1000.2 0.6 98
2018-05-22 07:00:00 13.8 2 Sudoeste 9 Sudoeste 0 999.9 0.4 99
2018-05-22 06:00:00 13.8 0 Calma 2 Sudeste 0 999.6 0.1 99
2018-05-22 05:00:00 13.5 0 Calma 4 Sudeste 0 999.6 -0.3 99
2018-05-22 04:00:00 13 0 Calma 10 Sudoeste 0 999.5 -0.2 98
2018-05-22 03:00:00 13.4 4 Sudoeste 11 Sudoeste 0 999.5 -0.3 98
2018-05-22 02:00:00 14.3 5 Oeste 28 Oeste 0 999.9 0.8 98
2018-05-22 01:00:00 14.7 15 Oeste 25 Oeste 0 999.7 1.1 98
2018-05-22 00:00:00 14.9 0 Calma 10 Sudoeste 0 999.8 1.6 98
2018-05-21 23:00:00 15.2 7 Sudoeste 11 Sur 0 999.1 1.2 96
2018-05-21 22:00:00 16 6 Sur 14 Sur 0 998.6 1.8 96
2018-05-21 21:00:00 16.3 0 Calma 16 Este 2.1 998.2 2.2 96
2018-05-21 20:00:00 16.3 9 Este 44 Nordeste 21.8 997.9 1.8 93
2018-05-21 19:00:00 20.8 13 Nordeste 25 Sudoeste 0 996.8 0.3 55
2018-05-21 18:00:00 22.7 17 Oeste 30 Oeste 0 996 -1 48
2018-05-21 17:00:00 22.9 12 Oeste 22 Oeste 0 996.1 -1.7 48
2018-05-21 16:00:00 23 10 Sudoeste 19 Sudoeste 0 996.5 -1.7 49
2018-05-21 15:00:00 22.4 3 Sur 15 Este 0 997 -1.8 56
2018-05-21 14:00:00 20.8 4 Norte 17 Sudeste 0 997.8 -0.7 64
2018-05-21 13:00:00 19.8 0 Calma 6 Este 0 998.2 -0.1 74
2018-05-21 12:00:00 17.6 2 Nordeste 7 Este 0 998.8 0.8 83
2018-05-21 11:00:00 16.3 0 Calma 3 Sur 0 998.5 0.7 98
2018-05-21 10:00:00 14.7 3 Sur 6 Sur 0 998.3 1 99
2018-05-21 09:00:00 14 2 Sudeste 4 Sudeste 0.1 998 0.6 99
2018-05-21 08:00:00 13.6 0 Calma 4 Sudeste 0 997.8 0.5 99
2018-05-21 07:00:00 13.3 0 Calma 4 Este 0.1 997.3 -0.4 99
2018-05-21 06:00:00 13.4 0 Calma 5 Sudeste 0 997.4 -0.7 99
2018-05-21 05:00:00 13.1 0 Calma 4 Sudeste 0 997.3 -1.2 99
2018-05-21 04:00:00 13.3 3 Sudeste 4 Sudeste 0 997.7 -0.7 99
2018-05-21 03:00:00 13.6 0 Calma 5 Sur 0 998.1 -0.8 99
2018-05-21 02:00:00 13.7 0 Calma 6 Sudeste 0 998.5 -0.2 99
2018-05-21 01:00:00 13.9 4 Sudeste 6 Sudeste 0 998.4 0.6 99
2018-05-21 00:00:00 14.4 0 Calma 4 Nordeste 0 998.9 0.9 98
2018-05-20 23:00:00 15.2 0 Calma 8 Noroeste 0 998.7 0.1 98
2018-05-20 22:00:00 15.6 0 Calma 10 Este 0.1 997.8 -0.3 98
2018-05-20 21:00:00 15.6 7 Sudeste 25 Sur 1.4 998 1 94
2018-05-20 20:00:00 15.5 16 Sur 38 Sudoeste 7.7 998.6 1.7 92
2018-05-20 19:00:00 16.8 24 Sudoeste 39 Sudoeste 3.6 998.1 1 75
2018-05-20 18:00:00 23.4 12 Oeste 22 Oeste 0 997 -1.2 44
2018-05-20 17:00:00 24.4 6 Noroeste 22 Noroeste 0 996.9 -1.7 42
2018-05-20 16:00:00 22.3 14 Noroeste 31 Noroeste 0 997.1 -2.2 53
2018-05-20 15:00:00 21.6 19 Noroeste 29 Noroeste 0 998.2 -1.5 61
2018-05-20 14:00:00 22.3 16 Noroeste 26 Norte 0 998.6 -1.4 57
2018-05-20 13:00:00 22.4 5 Noroeste 16 Nordeste 0 999.3 -0.6 58
2018-05-20 12:00:00 20.8 6 Norte 11 Norte 0 999.7 -0.3 60
2018-05-20 11:00:00 18.5 2 Norte 5 Norte 0 1000 0.2 79
2018-05-20 10:00:00 16.4 5 Sudoeste 8 Sudeste 0 999.9 0.2 95
2018-05-20 09:00:00 13.8 3 Sudeste 5 Sur 0 1000 0.3 99
2018-05-20 08:00:00 12.6 4 Sur 6 Sur 0 999.8 0.1 99
2018-05-20 07:00:00 12 3 Sudoeste 4 Sudoeste 0 999.7 -0.3 99
2018-05-20 06:00:00 11.9 0 Calma 6 Sudeste 0 999.7 -0.6 99
2018-05-20 05:00:00 12.1 2 Sur 4 Sudeste 0 999.7 -1 99
2018-05-20 04:00:00 12.2 0 Calma 7 Sudeste 0 1000 -1.1 99
2018-05-20 03:00:00 12.2 4 Sudeste 8 Sudeste 0 1000.3 -0.8 99
2018-05-20 02:00:00 12.7 4 Sudeste 9 Sur 0 1000.7 0.1 99
2018-05-20 01:00:00 13.4 5 Este 12 Sudoeste 0 1001.1 0.8 98
2018-05-20 00:00:00 14.4 8 Sudoeste 12 Sudoeste 0 1001.1 1.1 97
2018-05-19 23:00:00 15.6 0 Calma 5 Oeste 0 1000.6 0.8 93
2018-05-19 22:00:00 16.8 4 Oeste 7 Oeste 0 1000.3 0.5 94
2018-05-19 21:00:00 18.3 0 Calma 11 Sudeste 0 1000 -0.1 91
2018-05-19 20:00:00 18.1 4 Este 21 Oeste 0.2 999.8 -0.6 84
2018-05-19 19:00:00 17.2 5 Sudoeste 15 Sudoeste 0.6 999.8 1.3 91
2018-05-19 18:00:00 16.6 0 Calma 33 Nordeste 5.5 1000.1 1.2 91
2018-05-19 17:00:00 20.4 12 Este 42 Sudeste 0 1000.4 0.5 54
2018-05-19 16:00:00 28.3 3 Oeste 19 Este 0 998.5 -1.9 37
2018-05-19 15:00:00 27.7 3 Sur 14 Sudeste 0 998.9 -1.9 42
2018-05-19 14:00:00 25.9 7 Sudeste 18 Sudeste 0 999.9 -1.1 48
2018-05-19 13:00:00 24.6 9 Sudeste -- -- -- 1000.4 -0.5 53
2018-05-19 12:00:00 23.6 7 Este 16 Sudeste 0 1000.8 0.1 51
2018-05-19 11:00:00 22.4 6 Este 13 Este 0 1001 0.3 56
2018-05-19 10:00:00 19.9 5 Este 13 Este 0 1000.9 0.5 67
2018-05-19 09:00:00 18.1 4 Sudeste 6 Sudeste 0 1000.7 0.5 76
2018-05-19 08:00:00 14.7 3 Sur 5 Sudeste 0 1000.7 0.6 87
2018-05-19 07:00:00 13.9 0 Calma 5 Noroeste 0 1000.4 0.2 87
2018-05-19 06:00:00 14.4 3 Noroeste 5 Noroeste 0 1000.2 -0.4 83
2018-05-19 05:00:00 14.3 0 Calma 4 Sudoeste 0 1000.1 -0.7 82
2018-05-19 04:00:00 14.7 0 Calma 7 Sur 0 1000.2 -0.5 81
2018-05-19 03:00:00 15 6 Sudeste 9 Sudoeste 0 1000.6 0.1 80
2018-05-19 02:00:00 14.2 0 Calma 6 Sudoeste 0 1000.8 0.4 79
2018-05-19 01:00:00 15.5 9 Sudoeste 12 Sudoeste 0 1000.7 1 68
2018-05-19 00:00:00 16.2 3 Sur 17 Sudoeste 0 1000.5 1.2 73
2018-05-18 23:00:00 18 10 Sudoeste 19 Sudoeste 0 1000.4 1.9 58
2018-05-18 22:00:00 18.9 10 Sur 21 Sur 0 999.7 1.5 54
2018-05-18 21:00:00 19.3 7 Sudoeste 26 Sur 0 999.3 1 58
2018-05-18 20:00:00 21.2 16 Sur 26 Sudeste 0 998.5 -0.2 52
2018-05-18 19:00:00 23 10 Este 24 Este 0 998.2 -0.2 66
2018-05-18 18:00:00 21.8 15 Este 29 Sudeste 0.1 998.3 -0.6 69
2018-05-18 17:00:00 18.2 17 Este 42 Este 2.3 998.7 -1.2 79
2018-05-18 16:00:00 25.2 8 Este 21 Sudeste 0 998.4 -2 45
2018-05-18 15:00:00 24.2 10 Este 19 Sudeste 0 998.9 -1.6 46
2018-05-18 14:00:00 24.7 5 Este 18 Sudeste 0 999.9 -0.9 45
2018-05-18 13:00:00 24.4 5 Nordeste 20 Nordeste 0 1000.4 -0.3 48
2018-05-18 12:00:00 22.8 4 Nordeste 15 Norte 0 1000.5 0.2 52
2018-05-18 11:00:00 21.2 3 Nordeste 15 Nordeste 0 1000.8 0.8 58
2018-05-18 10:00:00 19.3 5 Norte 10 Norte 0 1000.7 1 65
2018-05-18 09:00:00 16.7 3 Este 4 Este 0 1000.3 0.7 80
2018-05-18 08:00:00 13.5 0 Calma 7 Sudeste 0 1000 0.6 90
2018-05-18 07:00:00 12.8 6 Sur 10 Sudoeste 0 999.7 -0.1 92
2018-05-18 06:00:00 13.4 0 Calma 5 Sudoeste 0 999.6 -0.3 88
2018-05-18 05:00:00 14.3 6 Sudoeste 14 Sudoeste 0 999.4 -1 86
2018-05-18 04:00:00 14.4 9 Sudoeste 14 Sudoeste 0 999.8 -0.5 84
2018-05-18 03:00:00 14.2 9 Sudoeste 16 Sudoeste 0 999.9 -0.3 82
2018-05-18 02:00:00 15.5 10 Sudoeste 18 Sudoeste 0 1000.4 1.1 78
2018-05-18 01:00:00 15.9 13 Sudoeste 18 Sudoeste 0 1000.3 2.5 76
2018-05-18 00:00:00 15.9 9 Sudoeste 15 Sur 0 1000.2 3.3 74
2018-05-17 23:00:00 17.9 12 Sur 27 Sur 0 999.3 3 62
2018-05-17 22:00:00 19.4 18 Sudoeste 33 Sudoeste 0 997.8 1.8 56
2018-05-17 21:00:00 21.6 21 Sur 35 Sur 0 996.9 0.9 51
2018-05-17 20:00:00 27.4 10 Sudoeste 22 Sur 0 996.3 0.3 35
2018-05-17 19:00:00 28.5 3 Este 13 Norte 0 996 -0.5 32
2018-05-17 18:00:00 29.4 3 Sudoeste 13 Nordeste 0 996 -0.9 32
2018-05-17 17:00:00 27.7 5 Sudeste 20 Nordeste 0 996 -1.4 34
2018-05-17 16:00:00 27.2 12 Nordeste 20 Nordeste 0 996.5 -1.2 34
2018-05-17 15:00:00 27 6 Este 25 Nordeste 0 996.9 -1.2 35
2018-05-17 14:00:00 26 5 Nordeste 19 Norte 0 997.4 -0.8 38
2018-05-17 13:00:00 24.2 7 Nordeste 20 Norte 0 997.7 -0.7 39
2018-05-17 12:00:00 23.2 6 Este 14 Nordeste 0 998.1 -0.1 46
2018-05-17 11:00:00 21.6 5 Este 13 Este 0 998.2 0 51
2018-05-17 10:00:00 18.9 3 Este 6 Sudeste 0 998.4 0.7 62
2018-05-17 09:00:00 15.2 0 Calma 9 Sur 0 998.2 0.9 71
2018-05-17 08:00:00 11.7 3 Sur 6 Sudeste 0 998.2 0.4 83
2018-05-17 07:00:00 10.8 6 Sudoeste 8 Sur 0 997.7 -0.2 81
2018-05-17 06:00:00 12.3 3 Noroeste 5 Noroeste 0 997.3 -0.7 70
2018-05-17 05:00:00 13 0 Calma 13 Sudoeste 0 997.8 0.1 69
2018-05-17 04:00:00 14 8 Sudoeste 19 Sur 0 997.9 0.4 65
2018-05-17 03:00:00 15.1 11 Sur 23 Sudoeste 0 998 1.1 60
2018-05-17 02:00:00 15.4 10 Sur 17 Sudoeste 0 997.7 1.7 59
2018-05-17 01:00:00 15.6 9 Sur 18 Sudoeste 0 997.5 2.5 57
2018-05-17 00:00:00 16 9 Sudoeste 17 Sudoeste 0 996.9 2.4 57
2018-05-16 23:00:00 16.9 10 Sur 19 Sur 0 996 2 56
2018-05-16 22:00:00 18.3 13 Sur 32 Sudoeste 0 995 1.2 51
2018-05-16 21:00:00 21.2 19 Sudoeste 31 Sur 0 994.5 0.2 45
2018-05-16 20:00:00 25 15 Sur 32 Sur 0 994 -0.9 41
2018-05-16 19:00:00 30.1 4 Sur 13 Noroeste 0 993.8 -2 35
2018-05-16 18:00:00 29.1 6 Sudeste 17 Este 0 994.3 -2.2 36
2018-05-16 17:00:00 29.2 3 Oeste 18 Sudeste 0 994.9 -2.4 35
2018-05-16 16:00:00 27.7 8 Este 19 Este 0 995.8 -2.2 38
2018-05-16 15:00:00 27.1 7 Nordeste 19 Este 0 996.5 -1.6 38
2018-05-16 14:00:00 26.4 4 Este 18 Sudeste 0 997.3 -1.2 40
2018-05-16 13:00:00 25 7 Este 19 Este 0 998 -0.5 43
2018-05-16 12:00:00 23.5 11 Sudeste 21 Sudeste 0 998.1 -0.6 46
2018-05-16 11:00:00 21.8 4 Sudeste 11 Sudeste 0 998.5 0 52
2018-05-16 10:00:00 19.5 3 Nordeste 7 Nordeste 0 998.5 0.1 56
2018-05-16 09:00:00 16.3 0 Calma 4 Este 0 998.7 0.4 65
2018-05-16 08:00:00 13.1 0 Calma 6 Sur 0 998.5 0.1 70
2018-05-16 07:00:00 11.1 3 Sur 6 Sudeste 0 998.4 -0.3 71
2018-05-16 06:00:00 11.7 3 Sudeste 8 Sudeste 0 998.3 -0.5 69
2018-05-16 05:00:00 12.9 0 Calma 4 Norte 0 998.4 -0.8 65
2018-05-16 04:00:00 12.9 0 Calma 6 Sudeste 0 998.7 -0.6 63
2018-05-16 03:00:00 13.3 4 Sur 7 Sur 0 998.8 -0.1 64
2018-05-16 02:00:00 14.1 3 Sur 9 Sudeste 0 999.2 0.5 61
2018-05-16 01:00:00 14.3 4 Sur 13 Sudoeste 0 999.3 1.4 61
2018-05-16 00:00:00 16.7 6 Sur 14 Sudoeste 0 998.9 1.2 52
2018-05-15 23:00:00 20.7 5 Oeste 15 Noroeste 0 998.7 1.4 43
2018-05-15 22:00:00 21.6 5 Sudoeste 7 Sudoeste 0 997.9 0.4 38
2018-05-15 21:00:00 26 0 Calma 7 Sudeste 0 997.7 -0.2 35
2018-05-15 20:00:00 27 6 Este 14 Nordeste 0 997.3 -1.2 35
2018-05-15 19:00:00 27.8 5 Este 16 Nordeste 0 997.5 -1.7 32
2018-05-15 18:00:00 27.5 5 Este 22 Este 0 997.9 -1.8 31
2018-05-15 17:00:00 27.3 8 Este 18 Nordeste 0 998.5 -1.8 32
2018-05-15 16:00:00 26.6 15 Este 27 Este 0 999.2 -1.8 33
2018-05-15 15:00:00 26.6 5 Sudeste 19 Este 0 999.7 -1.8 35
2018-05-15 14:00:00 26.2 5 Nordeste 22 Este 0 1000.3 -1.5 36
2018-05-15 13:00:00 24.7 10 Este 24 Este 0 1001 -1 38
2018-05-15 12:00:00 23.1 14 Nordeste 24 Nordeste 0 1001.5 -0.7 40
2018-05-15 11:00:00 21.4 13 Nordeste 23 Nordeste 0 1001.8 0 43
2018-05-15 10:00:00 19.2 14 Nordeste 23 Nordeste 0 1002 0.9 48
2018-05-15 09:00:00 16.5 5 Nordeste 11 Nordeste 0 1002.2 1.3 55
2018-05-15 08:00:00 14.1 0 Calma 8 Este 0 1001.8 1.6 62
2018-05-15 07:00:00 11.7 0 Calma 7 Noroeste 0 1001.1 0.2 65
2018-05-15 06:00:00 13.3 0 Calma 8 Norte 0 1000.9 -0.2 59
2018-05-15 05:00:00 14.8 4 Norte 9 Nordeste 0 1000.2 -1.1 57
2018-05-15 04:00:00 14.6 0 Calma 11 Sudoeste 0 1000.9 -0.6 59
2018-05-15 03:00:00 14.6 4 Sudoeste 11 Sudoeste 0 1001.1 -0.1 56
2018-05-15 02:00:00 15.9 0 Calma 5 Norte 0 1001.3 0.3 53
2018-05-15 01:00:00 16.9 0 Calma 8 Oeste 0 1001.5 1.6 51
2018-05-15 00:00:00 17.9 4 Noroeste 14 Norte 0 1001.2 1.4 48
2018-05-14 23:00:00 18.7 7 Noroeste 10 Noroeste 0 1001 1.3 44
2018-05-14 22:00:00 20.8 3 Norte 15 Nordeste 0 999.9 0.2 39
2018-05-14 21:00:00 24 7 Nordeste 17 Nordeste 0 999.8 -0.2 35
2018-05-14 20:00:00 24.6 8 Nordeste 14 Norte 0 999.7 -0.6 34
2018-05-14 19:00:00 25.3 6 Noroeste 17 Noroeste 0 999.7 -1.5 33
2018-05-14 18:00:00 26.4 4 Oeste 24 Norte 0 1000 -1.8 32
2018-05-14 17:00:00 25.9 4 Nordeste 24 Este 0 1000.3 -2.1 33
2018-05-14 16:00:00 24.3 10 Este 21 Nordeste 0 1001.2 -1.8 35
2018-05-14 15:00:00 24.2 7 Norte 22 Nordeste 0 1001.8 -1.7 32
2018-05-14 14:00:00 23.7 4 Nordeste 28 Norte 0 1002.4 -1.5 33
2018-05-14 13:00:00 22.8 6 Este 18 Sudeste 0 1003 -1.5 38
2018-05-14 12:00:00 20.3 11 Este 24 Este 0 1003.5 -1.5 44
2018-05-14 11:00:00 19 12 Nordeste 22 Nordeste 0 1003.9 -0.8 45
2018-05-14 10:00:00 15.7 2 Nordeste 7 Nordeste 0 1004.5 0.3 58
2018-05-14 09:00:00 11.1 3 Sur 9 Sudeste 0 1005 0.8 73
2018-05-14 08:00:00 8.4 0 Calma 4 Sudeste 0 1004.7 0.2 78
2018-05-14 07:00:00 7.1 0 Calma 4 Sur 0 1004.2 -0.2 78
2018-05-14 06:00:00 7.5 0 Calma 3 Este 0 1004.2 -0.8 76
2018-05-14 05:00:00 7.6 2 Sudeste 4 Sudeste 0 1004.5 -0.8 75
2018-05-14 04:00:00 9.1 0 Calma 5 Noroeste 0 1004.4 -1.1 68
2018-05-14 03:00:00 10 3 Oeste 5 Sudoeste 0 1005 -0.4 62
2018-05-14 02:00:00 11.8 3 Nordeste 10 Norte 0 1005.3 0.1 53
2018-05-14 01:00:00 13.1 8 Noroeste 10 Noroeste 0 1005.5 1 44
2018-05-11 20:00:00 23.7 15 Oeste 28 Oeste 0 1001.6 -0.6 45
2018-05-11 19:00:00 24.5 17 Oeste 31 Oeste 0 1001.6 -1 45
2018-05-11 18:00:00 24.5 17 Oeste 33 Oeste 0 1002 -1 46
2018-05-11 17:00:00 24.9 16 Oeste 30 Oeste 0 1002.2 -1.3 46
2018-05-11 16:00:00 25.3 11 Oeste 26 Sudoeste 0 1002.6 -1.3 45
2018-05-11 15:00:00 24.7 4 Oeste 15 Oeste 0 1003 -1.3 46
2018-05-11 14:00:00 24.5 4 Sudoeste 15 Noroeste 0 1003.5 -1.2 50
2018-05-11 13:00:00 22.3 3 Noroeste 13 Oeste 0 1003.9 -0.8 56
2018-05-11 12:00:00 20.7 5 Sudoeste 11 Sudoeste 0 1004.3 0.1 63
2018-05-11 11:00:00 18.7 4 Este 9 Nordeste 0 1004.7 0.8 68
2018-05-11 10:00:00 16.4 0 Calma 6 Este 0 1004.7 1.6 82
2018-05-11 09:00:00 13.3 0 Calma 3 Este 0 1004.2 1.4 94
2018-05-11 08:00:00 10.2 0 Calma 4 Sudeste 0 1003.9 1.1 99
2018-05-11 07:00:00 9.7 0 Calma 5 Sudeste 0 1003.1 0.6 99
2018-05-11 06:00:00 9.9 4 Sudeste 7 Sudeste 0 1002.8 -0.1 99
2018-05-11 05:00:00 10.3 0 Calma 8 Sudeste 0 1002.8 0 97
2018-05-11 04:00:00 10.5 4 Sudeste 7 Este 0 1002.5 -0.3 94
2018-05-11 03:00:00 12 4 Sur 7 Sudeste 0 1002.9 0.1 89
2018-05-11 02:00:00 13 0 Calma 9 Sudoeste 0 1002.8 0.7 83
2018-05-11 01:00:00 14 0 Calma 25 Oeste 0 1002.8 1.3 81
2018-05-11 00:00:00 15 16 Oeste 25 Oeste 0 1002.8 2 77
2018-05-10 23:00:00 16.3 12 Oeste 23 Sudoeste 0 1002.1 1.9 71
2018-05-10 22:00:00 17.2 15 Sudoeste 22 Oeste 0 1001.5 1.7 65
2018-05-10 21:00:00 19.8 13 Oeste 25 Oeste 0 1000.8 1.2 54
2018-05-10 20:00:00 22.4 13 Oeste 25 Sudoeste 0 1000.2 0.2 47
2018-05-10 19:00:00 24.2 8 Oeste 21 Oeste 0 999.8 -0.4 43
2018-05-10 18:00:00 23.8 10 Oeste 25 Oeste 0 999.6 -0.9 43
2018-05-10 17:00:00 24.2 12 Oeste 25 Sudoeste 0 1000 -0.5 45
2018-05-10 16:00:00 23.6 12 Sudoeste 24 Oeste 0 1000.2 -0.6 46
2018-05-10 15:00:00 23.4 9 Sudoeste 23 Sudoeste 0 1000.5 -0.4 50
2018-05-10 14:00:00 21.9 5 Sudoeste 18 Sudoeste 0 1000.5 -0.3 56
2018-05-10 13:00:00 21.5 5 Sudoeste 16 Sudoeste 0 1000.8 0.2 61
2018-05-10 12:00:00 19.3 8 Oeste 16 Sudoeste 0 1000.9 0.3 68
2018-05-10 11:00:00 18.4 6 Oeste 15 Sudoeste 0 1000.8 0.8 76
2018-05-10 10:00:00 16.9 6 Sudoeste 12 Sudoeste 0 1000.6 1.4 87
2018-05-10 09:00:00 15.7 4 Oeste 12 Sudoeste 0 1000.6 1.4 90
2018-05-10 08:00:00 14.8 5 Sudoeste 11 Sudoeste 0 1000 0.6 91
2018-05-10 07:00:00 14.8 7 Sudoeste 15 Sudoeste 0 999.2 0.1 89
2018-05-10 06:00:00 14.7 10 Sudoeste 17 Sudoeste 0 999.2 0.1 89
2018-05-10 05:00:00 15 7 Sudoeste 20 Sudoeste 0 999.4 -0.2 88
2018-05-10 04:00:00 14.9 10 Sudoeste 22 Sudoeste 0 999.1 -0.8 90
2018-05-10 03:00:00 14.8 13 Sudoeste 26 Sudoeste 0 999.1 -0.7 90
2018-05-10 02:00:00 15.1 18 Sudoeste 28 Sudoeste 0 999.6 -0.5 89
2018-05-10 01:00:00 15.5 18 Oeste 30 Sudoeste 0 999.9 0.7 87
2018-05-10 00:00:00 15.8 22 Sudoeste 33 Oeste 0 999.8 1.1 87
2018-05-09 23:00:00 16.3 18 Sudoeste 31 Oeste 0 1000.1 1.6 87
2018-05-09 22:00:00 16.3 12 Sudoeste 19 Sur 0 999.2 0.6 86
2018-05-09 21:00:00 17.8 12 Sudoeste 23 Oeste 0 998.7 0 83
2018-05-09 20:00:00 18.5 13 Sudoeste 26 Sudoeste 0 998.5 -0.3 82
2018-05-09 19:00:00 18.5 17 Sudoeste 28 Sudoeste 0 998.6 -0.6 84
2018-05-09 18:00:00 18.6 14 Sudoeste 30 Sudoeste 0 998.7 -0.6 86
2018-05-09 17:00:00 18.7 15 Oeste 29 Sudoeste 0 998.8 -0.6 83
2018-05-09 16:00:00 20.3 17 Oeste 35 Oeste 0 999.2 -0.1 74
2018-05-09 15:00:00 20.4 16 Oeste 27 Oeste 0 999.3 -0.2 71
2018-05-09 14:00:00 19.5 13 Oeste 21 Oeste 0 999.4 -0.5 72
2018-05-09 13:00:00 18.8 12 Sudoeste 19 Sudoeste 0 999.3 -0.2 78
2018-05-09 12:00:00 18.3 12 Sudoeste 19 Sudoeste 0 999.5 0.2 81
2018-05-09 11:00:00 17 11 Sudoeste 21 Sudoeste 0 999.9 1 88
2018-05-09 10:00:00 15.9 13 Sudoeste 21 Oeste 0 999.5 1.6 95
2018-05-09 09:00:00 15.3 10 Sudoeste 21 Oeste 0 999.3 1.9 95
2018-05-09 08:00:00 14.9 9 Oeste 22 Oeste 0 998.9 1.7 95
2018-05-09 07:00:00 14.9 8 Oeste 23 Sudoeste 0 997.9 0.4 96
2018-05-09 06:00:00 14.9 6 Oeste 13 Sudoeste 0 997.4 -0.1 96
2018-05-09 05:00:00 14.9 4 Sudoeste 21 Oeste 0 997.2 -1 94
2018-05-09 04:00:00 15.6 13 Sudoeste 33 Oeste 0 997.5 -0.7 90
2018-05-09 03:00:00 16.5 16 Oeste 27 Oeste 0 997.5 -0.7 82
2018-05-09 02:00:00 16.8 12 Oeste 21 Oeste 0 998.2 0.8 80
2018-05-09 01:00:00 17.3 12 Oeste 23 Sudoeste 0 998.2 1 76
2018-05-09 00:00:00 18.1 13 Sudoeste 20 Sudoeste 0 998.2 1.5 76
2018-05-08 23:00:00 18.6 11 Sudoeste 20 Sudoeste 0 997.4 1.5 74
2018-05-08 22:00:00 19.7 5 Sudoeste 12 Oeste 0 997.2 1.5 64
2018-05-08 21:00:00 20.9 5 Oeste 31 Noroeste 0 996.7 0.9 61
2018-05-08 20:00:00 22.6 18 Noroeste 31 Noroeste 0 995.9 -0.3 57
2018-05-08 19:00:00 24.9 18 Noroeste 29 Noroeste 0 995.7 -1.1 48
2018-05-08 18:00:00 26.2 17 Noroeste 27 Oeste 0 995.8 -1.3 45
2018-05-08 17:00:00 25.2 17 Noroeste 27 Noroeste 0 996.2 -1.7 46
2018-05-08 16:00:00 26.7 13 Oeste 25 Oeste 0 996.8 -1.7 46
2018-05-08 15:00:00 25.5 11 Oeste 25 Noroeste 0 997.1 -1.9 50
2018-05-08 14:00:00 24.5 6 Oeste 20 Sudoeste 0 997.9 -1.3 54
2018-05-08 13:00:00 23.7 7 Oeste 18 Oeste 0 998.5 -1.1 57
2018-05-08 12:00:00 21.8 5 Oeste 15 Sudoeste 0 999 -0.3 62
2018-05-08 11:00:00 19.9 6 Noroeste 16 Noroeste 0 999.2 0.1 68
2018-05-08 10:00:00 19 0 Calma 5 Sudeste 0 999.6 0.8 73
2018-05-08 09:00:00 15.9 3 Sudeste 6 Sudeste 0 999.3 0.1 87
2018-05-08 08:00:00 13 0 Calma 3 Sur 0 999.1 0.1 95
2018-05-08 07:00:00 12.3 0 Calma 5 Sur 0 998.8 -0.3 95
2018-05-08 06:00:00 12.9 0 Calma 5 Este 0 999.2 0 95
2018-05-08 05:00:00 13.8 0 Calma 12 Sudoeste 0 999 -0.6 93
2018-05-08 04:00:00 14.2 0 Calma 21 Sudoeste 0 999.1 -0.5 87
2018-05-08 03:00:00 15.6 10 Sudoeste 31 Sudoeste 0 999.2 -0.2 80
2018-05-08 02:00:00 16.1 19 Oeste 36 Sudoeste 0 999.6 0.6 76
2018-05-08 01:00:00 16.7 21 Oeste 39 Sudoeste 0 999.6 1.6 73
2018-05-08 00:00:00 17.8 18 Oeste 30 Oeste 0 999.4 1.8 70
2018-05-07 23:00:00 19 12 Oeste 22 Sudoeste 0 999 1.8 64
2018-05-07 22:00:00 20.4 8 Noroeste 23 Oeste 0 998 1.2 56
2018-05-07 21:00:00 22.6 14 Oeste 27 Oeste 0 997.6 0.3 45
2018-05-07 20:00:00 25.5 13 Oeste 23 Oeste 0 997.2 -0.2 39
2018-05-07 19:00:00 27.7 6 Oeste 16 Oeste 0 996.8 -1.3 33
2018-05-07 18:00:00 27.7 6 Noroeste 19 Oeste 0 997.3 -1.4 33
2018-05-07 17:00:00 27.8 6 Noroeste 18 Noroeste 0 997.4 -2.1 34
2018-05-07 16:00:00 26.9 3 Norte 16 Sudoeste 0 998.1 -2 36
2018-05-07 15:00:00 26 8 Oeste 18 Sudoeste 0 998.7 -1.9 39
2018-05-07 14:00:00 25.2 3 Sur 19 Oeste 0 999.5 -1.2 44
2018-05-07 13:00:00 24.1 3 Oeste 13 Noroeste 0 1000.1 -0.3 47
2018-05-07 12:00:00 22.3 5 Sudeste 11 Este 0 1000.6 0.3 57
2018-05-07 11:00:00 20.5 5 Este 10 Este 0 1000.7 0.7 67
2018-05-07 10:00:00 17.6 3 Este 8 Este 0 1000.4 0.8 78
2018-05-07 09:00:00 14.9 0 Calma 5 Sudeste 0 1000.3 0.9 91
2018-05-07 08:00:00 12.2 0 Calma 3 Sur 0 1000 0.7 95
2018-05-07 07:00:00 11.2 0 Calma 5 Sudoeste 0 999.6 -0.1 92
2018-05-07 06:00:00 12.3 0 Calma 5 Norte 0 999.4 -0.3 92
2018-05-07 05:00:00 12.3 0 Calma 2 Norte 0 999.3 -0.7 87
2018-05-07 04:00:00 13.1 0 Calma 5 Norte 0 999.7 -0.4 87
2018-05-07 03:00:00 13.8 2 Noroeste 6 Oeste 0 999.7 -0.3 83
2018-05-07 02:00:00 14.3 3 Sur 8 Este 0 1000 0.3 78
2018-05-07 01:00:00 15.9 7 Sur 24 Sudoeste 0 1000.1 0.8 71
2018-05-07 00:00:00 15.9 9 Sudoeste 16 Sudoeste 0 1000 1.7 75
2018-05-06 23:00:00 16 11 Sudoeste 13 Sudoeste 0 999.7 1.9 77
2018-05-06 22:00:00 17.6 5 Oeste 14 Norte 0 999.3 1.5 67
2018-05-06 21:00:00 19.3 0 Calma 13 Sudeste 0 998.3 1.2 60
2018-05-06 20:00:00 21 4 Noroeste 31 Este 0 997.8 0.4 54
2018-05-06 19:00:00 20.5 17 Este 33 Nordeste 0 997.8 -0.4 57
2018-05-06 18:00:00 25.8 10 Sudoeste 24 Sudoeste 0.1 997.1 -1.7 46
2018-05-06 17:00:00 24.9 5 Sudeste 15 Oeste 0 997.4 -1.9 50
2018-05-06 16:00:00 26 3 Sudeste 17 Norte 0 998.2 -1.9 46
2018-05-06 15:00:00 25.9 6 Nordeste 22 Nordeste 0 998.8 -1.7 45
2018-05-06 14:00:00 25.1 6 Norte 15 Norte 0 999.3 -1.7 46
2018-05-06 13:00:00 23.2 5 Este 18 Este 0 1000.1 -1.1 52
2018-05-06 12:00:00 21.6 5 Nordeste 13 Nordeste 0 1000.5 -0.7 58
2018-05-06 11:00:00 19.9 10 Este 15 Este 0 1001 0.4 63
2018-05-06 10:00:00 17.5 3 Sudeste 7 Sudeste 0 1001.2 1.4 71
2018-05-06 09:00:00 13.5 3 Sur 5 Sur 0 1001.2 1.4 83
2018-05-06 08:00:00 12.5 0 Calma 5 Norte 0 1000.6 0.5 82
2018-05-06 07:00:00 11.9 3 Sudoeste 8 Sudoeste 0 999.8 -0.2 80
2018-05-06 06:00:00 12.6 6 Sudoeste 9 Sudoeste 0 999.8 -0.5 74
2018-05-06 05:00:00 14.7 8 Sur 25 Sur 0 1000.1 0 65
2018-05-06 04:00:00 15.7 11 Sur 30 Sur 0 1000 0 62
2018-05-06 03:00:00 14.6 6 Sudoeste 12 Sudoeste 0 1000.3 0.1 70
2018-05-06 02:00:00 15 3 Sudeste 8 Este 0 1000.1 0.6 69
2018-05-06 01:00:00 15.5 6 Sur 17 Sur 0 1000 1.1 68
2018-05-06 00:00:00 15.9 9 Sur 20 Sudoeste 0 1000.2 1.9 65
2018-05-05 23:00:00 17.7 17 Sudoeste 24 Sudoeste 0 999.5 1.4 60
2018-05-05 22:00:00 18.2 14 Sudoeste 18 Sudoeste 0 998.9 0.8 62
2018-05-05 21:00:00 21.1 9 Sudoeste 13 Sudoeste 0 998.3 -0.1 55
2018-05-05 20:00:00 27 4 Oeste 13 Oeste 0 998.1 -0.2 32
2018-05-05 19:00:00 26.7 6 Noroeste 13 Noroeste 0 998.1 -0.8 33
2018-05-05 18:00:00 26 4 Este 12 Nordeste 0 998.4 -1 36
2018-05-05 17:00:00 26.4 3 Este 18 Nordeste 0 998.3 -1.6 33
2018-05-05 16:00:00 26.2 4 Este 19 Este 0 998.9 -1.7 36
2018-05-05 15:00:00 25.1 6 Este 15 Este 0 999.4 -1.3 39
2018-05-05 14:00:00 24.1 3 Nordeste 13 Este 0 999.9 -1.1 43
2018-05-05 13:00:00 22.7 3 Nordeste 10 Norte 0 1000.6 -0.5 48
2018-05-05 12:00:00 21.3 3 Este 12 Nordeste 0 1000.7 -0.4 54
2018-05-05 11:00:00 19.3 3 Sudeste 9 Sudeste 0 1001 0.1 64
2018-05-05 10:00:00 16.1 5 Sudeste 9 Sudeste 0 1001.1 1 76
2018-05-05 09:00:00 13 0 Calma 0 Calma 0 1001.1 1 89
2018-05-05 08:00:00 10.2 0 Calma 2 Sur 0 1000.9 0.9 97
2018-05-05 07:00:00 9.6 0 Calma 5 Sur 0 1000.1 0.1 97
2018-05-05 06:00:00 9.6 3 Sur 8 Sudeste 0 1000.1 -0.2 96
2018-05-05 05:00:00 10.1 0 Calma 5 Sur 0 1000 -0.2 95
2018-05-05 04:00:00 10.4 0 Calma 8 Sudeste 0 1000 -0.2 95
2018-05-05 03:00:00 10.9 0 Calma 8 Sudeste 0 1000.3 0.3 92
2018-05-05 02:00:00 11.8 0 Calma 12 Sudoeste 0 1000.2 0.5 89
2018-05-05 01:00:00 12.8 4 Oeste 10 Sudoeste 0 1000.2 1.5 87
2018-05-05 00:00:00 13 8 Sudoeste 12 Oeste 0 1000 2 83
2018-05-04 23:00:00 14.6 3 Oeste 18 Oeste 0 999.7 2.4 74
2018-05-04 22:00:00 15.7 15 Oeste 24 Oeste 0 998.7 2.2 67
2018-05-04 21:00:00 17.7 14 Oeste 30 Sudoeste 0 998 1.7 53
2018-05-04 20:00:00 20.3 19 Sudoeste 32 Sudoeste 0 997.3 1.2 46
2018-05-04 19:00:00 22.1 14 Sur 25 Sur 0 996.5 0.3 43
2018-05-04 18:00:00 24.6 8 Sudoeste 23 Sur 0 996.3 0 36
2018-05-04 17:00:00 24.2 4 Este 18 Este 0 996.1 -0.6 34
2018-05-04 16:00:00 24.9 0 Calma 20 Este 0 996.2 -0.9 34
2018-05-04 15:00:00 22.9 9 Nordeste 19 Este 0 996.3 -0.9 36
2018-05-04 14:00:00 21.7 9 Nordeste 19 Nordeste 0 996.7 -0.4 39
2018-05-04 13:00:00 21.1 8 Nordeste 21 Este 0 997.1 -0.1 41
2018-05-04 12:00:00 20 8 Nordeste 20 Este 0 997.2 0.1 44
2018-05-04 11:00:00 18.2 11 Nordeste 19 Este 0 997.1 0.2 49
2018-05-04 10:00:00 17 2 Este 6 Este 0 997.2 0.9 74
2018-05-04 09:00:00 14 0 Calma 7 Sur 0 997.1 0.7 86
2018-05-04 08:00:00 10.7 5 Sur 6 Sur 0 996.9 0.5 95
2018-05-04 07:00:00 10.4 0 Calma 3 Sudeste 0 996.3 -0.2 91
2018-05-04 06:00:00 11.2 0 Calma 6 Sudoeste 0 996.4 -0.6 87
2018-05-04 05:00:00 12.6 3 Norte 20 Oeste 0 996.4 -1.2 82
2018-05-04 04:00:00 14 14 Oeste 21 Oeste 0 996.5 -1.5 79
2018-05-04 03:00:00 14 10 Sudoeste 17 Sudoeste 0 997 -1.1 79
2018-05-04 02:00:00 14.8 7 Sudoeste 17 Sudoeste 0 997.6 -0.2 76
2018-05-04 01:00:00 14.9 12 Sudoeste 19 Sudoeste 0 998 0.9 76
2018-05-04 00:00:00 16 10 Sudoeste 23 Sudoeste 0 998.1 1.7 73
2018-05-03 23:00:00 17.7 17 Sudoeste 24 Oeste 0 997.8 1.8 62
2018-05-03 22:00:00 18.6 4 Norte 18 Oeste 0 997.1 0.9 52
2018-05-03 21:00:00 19.9 8 Oeste 11 Oeste 0 996.4 -0.2 46
2018-05-03 20:00:00 21.8 6 Oeste 19 Oeste 0 996 -1.3 40
2018-05-03 19:00:00 22.7 8 Oeste 15 Noroeste 0 996.2 -1.8 38
2018-05-03 18:00:00 23.8 4 Nordeste 12 Norte 0 996.6 -2 36
2018-05-03 17:00:00 22.3 5 Noroeste 12 Noroeste 0 997.3 -2.4 37
2018-05-03 16:00:00 23.2 6 Oeste 23 Noroeste 0 998 -2.4 38
2018-05-03 15:00:00 22 4 Nordeste 19 Noroeste 0 998.6 -2.2 43
2018-05-03 14:00:00 20.7 4 Nordeste 16 Norte 0 999.7 -1.5 44
2018-05-03 13:00:00 19 3 Noroeste 12 Norte 0 1000.4 -1.1 51
2018-05-03 12:00:00 17.9 2 Nordeste 12 Nordeste 0 1000.8 -0.7 58
2018-05-03 11:00:00 15.2 4 Nordeste 10 Este 0 1001.2 -0.1 65
2018-05-03 10:00:00 12.9 3 Este 6 Este 0 1001.5 0.3 76
2018-05-03 09:00:00 10.1 0 Calma 4 Sur 0 1001.5 0 91
2018-05-03 08:00:00 6.8 3 Sur 6 Sur 0 1001.3 -0.5 95
2018-05-03 07:00:00 6.6 0 Calma 3 Sudeste 0 1001.2 -0.6 95
2018-05-03 06:00:00 7 0 Calma 6 Sudeste 0 1001.5 -0.5 92
2018-05-03 05:00:00 7.6 0 Calma 4 Noroeste 0 1001.8 -0.8 92
2018-05-03 04:00:00 7.9 0 Calma 3 Sur 0 1001.8 -1.1 90
2018-05-03 03:00:00 8.5 0 Calma 6 Este 0 1002 -0.5 88
2018-05-03 02:00:00 9.5 0 Calma 15 Sudoeste 0 1002.6 0.3 82
2018-05-03 01:00:00 10.6 7 Sudoeste 25 Sudoeste 0 1002.9 1.3 76
2018-05-03 00:00:00 12.6 15 Oeste 31 Oeste 0 1002.5 1.4 61
2018-05-02 23:00:00 13.3 17 Oeste 34 Oeste 0 1002.3 1.4 53
2018-05-02 22:00:00 14.8 17 Oeste 29 Oeste 0 1001.6 0.8 49
2018-05-02 21:00:00 16.8 9 Oeste 21 Oeste 0 1001.1 0.2 46
2018-05-02 20:00:00 19.2 10 Oeste 18 Oeste 0 1000.9 -0.3 38
2018-05-02 19:00:00 20.2 9 Oeste 25 Oeste 0 1000.8 -0.8 34
2018-05-02 18:00:00 20.1 13 Oeste 27 Oeste 0 1000.9 -1.1 35
2018-05-02 17:00:00 19.9 11 Oeste 22 Oeste 0 1001.2 -1 35
2018-05-02 16:00:00 20.1 7 Noroeste 15 Noroeste 0 1001.6 -1.4 37
2018-05-02 15:00:00 20.5 6 Oeste 13 Sudoeste 0 1002 -1.4 40
2018-05-02 14:00:00 20.3 2 Nordeste 10 Nordeste 0 1002.2 -1.2 41
2018-05-02 13:00:00 18.2 3 Nordeste 10 Nordeste 0 1003 -0.5 46
2018-05-02 12:00:00 17.7 0 Calma 9 Sudeste 0 1003.4 0.2 52
2018-05-02 11:00:00 13.9 0 Calma 8 Nordeste 0 1003.4 0.7 66
2018-05-02 10:00:00 12.5 0 Calma 6 Este 0 1003.5 1.2 78
2018-05-02 09:00:00 9.4 0 Calma 4 Sudeste 0 1003.2 0.8 94
2018-05-02 08:00:00 5.6 2 Sur 7 Sudeste 0 1002.7 0.1 99
2018-05-02 07:00:00 5.2 3 Sur 5 Sudeste 0 1002.3 -0.4 99
2018-05-02 06:00:00 5.4 3 Sudeste 6 Sur 0 1002.4 -0.2 99
2018-05-02 05:00:00 5.7 3 Sur 7 Sur 0 1002.6 -0.4 99
2018-05-02 04:00:00 6.1 0 Calma 11 Sudeste 0 1002.7 0 99
2018-05-02 03:00:00 6.9 2 Sudeste 5 Este 0 1002.6 0.2 95
2018-05-02 02:00:00 7.5 0 Calma 13 Sudoeste 0 1003 1 92
2018-05-02 01:00:00 9.6 10 Sudoeste 22 Sudoeste 0 1002.7 1.2 85
2018-05-02 00:00:00 10.3 11 Oeste 19 Oeste 0 1002.4 1.5 83
2018-05-01 23:00:00 10.7 8 Oeste 14 Oeste 0 1002 1.2 78
2018-05-01 22:00:00 11.1 7 Oeste 12 Oeste 0 1001.5 1 77
2018-05-01 21:00:00 13.7 3 Noroeste 12 Noroeste 0 1000.9 0.3 62
2018-05-01 20:00:00 15.3 7 Noroeste 17 Norte 0 1000.8 -0.3 48
2018-05-01 19:00:00 16 6 Norte 16 Noroeste 0 1000.5 -1.6 49
2018-05-01 18:00:00 15.7 5 Noroeste 13 Noroeste 0 1000.6 -1.4 51
2018-05-01 17:00:00 14.1 3 Noroeste 18 Nordeste 0 1001.1 0.8 62
2018-05-01 16:00:00 12.9 13 Nordeste 26 Nordeste 0.1 1002.1 1.3 72
2018-05-01 15:00:00 7.9 10 Nordeste 41 Norte 8.5 1002 0.4 87
2018-05-01 14:00:00 17.2 12 Oeste 26 Sudoeste 0 1000.3 -1.2 48
2018-05-01 13:00:00 16.5 3 Sudoeste 11 Sur 0.2 1000.8 -0.6 62
2018-05-01 12:00:00 13.3 5 Norte 12 Norte 0 1001.6 0.6 71
2018-05-01 11:00:00 12.9 0 Calma 6 Este 0 1001.5 0.6 84
2018-05-01 10:00:00 10 3 Este 4 Este 0 1001.4 0.7 98
2018-05-01 09:00:00 7.9 0 Calma 5 Sudeste 0 1001 0.3 99
2018-05-01 08:00:00 6.2 3 Sudeste 5 Sur 0 1000.9 0.1 99
2018-05-01 07:00:00 5.9 0 Calma 5 Sur 0 1000.7 -0.5 99
2018-05-01 06:00:00 6 4 Sudeste 6 Sudeste 0 1000.7 -0.8 99
2018-05-01 05:00:00 6.8 0 Calma 5 Sudoeste 0 1000.8 -1.1 98
2018-05-01 04:00:00 7.3 4 Sudoeste 6 Este 0 1001.2 -0.5 95
2018-05-01 03:00:00 7.9 4 Sudeste 9 Sudeste 0 1001.5 -0.2 93
2018-05-01 02:00:00 9.1 5 Sudeste 26 Oeste 0 1001.9 0.3 87
2018-05-01 01:00:00 10.5 18 Oeste 30 Oeste 0 1001.7 0.7 81
2018-05-01 00:00:00 11.5 20 Oeste 30 Oeste 0 1001.7 1.2 71
2018-04-30 23:00:00 12.6 13 Oeste 27 Oeste 0 1001.6 1.5 65
2018-04-30 22:00:00 12.9 10 Oeste 19 Oeste 0 1001 1 61
2018-04-30 21:00:00 14.2 12 Oeste 22 Oeste 0 1000.5 0.4 51
2018-04-30 20:00:00 16.4 16 Oeste 27 Oeste 0 1000.1 -0.3 43
2018-04-30 19:00:00 17.2 13 Oeste 25 Oeste 0 1000 -1 43
2018-04-30 18:00:00 17.7 13 Noroeste 33 Oeste 0 1000.1 -1.4 42
2018-04-30 17:00:00 17 11 Oeste 22 Oeste 0 1000.4 -1.6 42
2018-04-30 16:00:00 17.1 8 Noroeste 26 Oeste 0 1001 -1.4 40
2018-04-30 15:00:00 16.2 12 Oeste 24 Oeste 0 1001.5 -1.1 43
2018-04-30 14:00:00 16.1 5 Oeste 20 Noroeste 0 1002 -0.6 46
2018-04-30 13:00:00 15 5 Noroeste 16 Oeste 0 1002.4 -0.2 45
2018-04-30 12:00:00 15.4 3 Sur 15 Noroeste 0 1002.6 0.2 55
2018-04-30 11:00:00 13.3 3 Este 10 Este 0 1002.6 0.4 67
2018-04-30 10:00:00 11.2 3 Sudeste 7 Sudoeste 0 1002.6 1 84
2018-04-30 09:00:00 7.5 0 Calma 7 Sur 0 1002.4 0.7 92
2018-04-30 08:00:00 7 4 Oeste 6 Oeste 0 1002.2 0.2 87
2018-04-30 07:00:00 7.9 0 Calma 9 Noroeste 0 1001.6 -0.4 85
2018-04-30 06:00:00 7.7 5 Norte 9 Norte 0 1001.7 -0.5 86
2018-04-30 05:00:00 8.7 9 Oeste 21 Oeste 0 1002 -0.8 81
2018-04-30 04:00:00 9.4 15 Oeste 21 Oeste 0 1002 -0.8 81
2018-04-30 03:00:00 10.1 15 Oeste 24 Oeste 0 1002.2 -0.6 82
2018-04-30 02:00:00 10.7 13 Oeste 22 Oeste 0 1002.8 0.1 84
2018-04-30 01:00:00 11.1 15 Oeste 24 Sudoeste 0 1002.8 0.8 84
2018-04-30 00:00:00 11.5 15 Sudoeste 26 Sudoeste 0 1002.8 1.3 83
2018-04-29 23:00:00 11.7 14 Sudoeste 20 Sudoeste 0 1002.7 1.6 80
2018-04-29 22:00:00 12 13 Sudoeste 30 Sudoeste 0 1002 0.8 76
2018-04-29 21:00:00 13 15 Sudoeste 40 Sudoeste 0 1001.5 0.8 70
2018-04-29 20:00:00 15.5 25 Sudoeste 40 Sudoeste 0 1001.1 0.6 57
2018-04-29 19:00:00 14.9 20 Oeste 53 Oeste 0 1001.2 0.2 59
2018-04-29 18:00:00 17.7 21 Oeste 40 Oeste 0 1000.7 -0.9 40
2018-04-29 17:00:00 17.9 24 Oeste 44 Sudoeste 0 1000.5 -1.4 37
2018-04-29 16:00:00 18.6 24 Oeste 42 Oeste 0 1001 -1.5 37
2018-04-29 15:00:00 17.7 23 Oeste 42 Oeste 0 1001.6 -0.8 40
2018-04-29 14:00:00 16.2 26 Oeste 42 Oeste 0 1001.9 -0.2 46
2018-04-29 13:00:00 15.1 22 Oeste 40 Oeste 0 1002.5 1 50
2018-04-29 12:00:00 14.5 21 Oeste 37 Oeste 0 1002.4 1.6 56
2018-04-29 11:00:00 13.6 21 Oeste 34 Oeste 0 1002.1 2.1 65
2018-04-29 10:00:00 12.1 19 Sudoeste 31 Sudoeste 0 1001.5 2.4 78
2018-04-29 09:00:00 9.7 12 Sudoeste 22 Sudoeste 0 1000.8 2.3 91
2018-04-29 08:00:00 7.6 14 Sudoeste 25 Sudoeste 0 1000 2.2 96
2018-04-29 07:00:00 7.6 10 Sudoeste 21 Sudoeste 0 999.1 1.5 94
2018-04-29 06:00:00 8.2 12 Sudoeste 24 Oeste 0 998.5 0.7 94
2018-04-29 05:00:00 8.6 11 Sudoeste 19 Sudoeste 0 997.8 0 93
2018-04-29 04:00:00 9.4 12 Sudoeste 27 Sudoeste 0 997.6 -0.2 91
2018-04-29 03:00:00 10.3 14 Sudoeste 26 Sudoeste 0 997.8 0.2 91
2018-04-29 02:00:00 10.2 15 Sudoeste 25 Sudoeste 0.1 997.8 0.5 90
2018-04-29 01:00:00 11.6 16 Sudoeste 27 Sudoeste 0 997.8 0.8 81
2018-04-29 00:00:00 11.6 14 Sudoeste 36 Sudoeste 0 997.6 1.4 78
2018-04-28 23:00:00 12.9 22 Sudoeste 39 Sudoeste 0 997.3 1.4 65
2018-04-28 22:00:00 13.4 21 Sudoeste 37 Sudoeste 0 997 1 57
2018-04-28 21:00:00 14.4 20 Oeste 40 Oeste 0 996.2 -0.2 51
2018-04-28 20:00:00 16.2 22 Sudoeste 38 Sudoeste 0 995.9 -0.9 46
2018-04-28 19:00:00 18.5 19 Sudoeste 35 Sudoeste 0 996 -1.5 40
2018-04-28 18:00:00 18.9 22 Sudoeste 40 Sudoeste 0 996.4 -1.5 38
2018-04-28 17:00:00 19.3 25 Sudoeste 42 Sudoeste 0 996.8 -1.7 38
2018-04-28 16:00:00 19.6 21 Oeste 40 Sudoeste 0 997.5 -1.5 38
2018-04-28 15:00:00 19.2 22 Oeste 39 Sudoeste 0 997.9 -1.2 41
2018-04-28 14:00:00 19 21 Sudoeste 37 Sudoeste 0 998.5 -0.4 48
2018-04-28 13:00:00 17.9 18 Sudoeste 33 Sudoeste 0 999 0.1 54
2018-04-28 12:00:00 16.8 18 Sudoeste 32 Oeste 0 999.1 1 68
2018-04-28 11:00:00 15.4 18 Sudoeste 30 Sudoeste 0 998.9 1 79
2018-04-28 10:00:00 13.5 17 Oeste 30 Sudoeste 0 998.9 1.2 94
2018-04-28 09:00:00 13.2 18 Sudoeste 25 Sudoeste 0 998.1 0.3 97
2018-04-28 08:00:00 12.6 13 Sudoeste 23 Sudoeste 0 997.9 -0.2 97
2018-04-28 07:00:00 12.6 5 Sudoeste 17 Sudoeste 0 997.7 -0.3 98
2018-04-28 06:00:00 11.6 5 Sudoeste 13 Sur 0 997.8 -0.5 95
2018-04-28 05:00:00 11.6 5 Sudeste 9 Sudeste 0 998.1 -0.6 93
2018-04-28 04:00:00 12.6 4 Sudeste 19 Oeste 0 998 -0.7 88
2018-04-28 03:00:00 14.7 13 Oeste 27 Sudoeste 0 998.3 -0.5 79
2018-04-28 02:00:00 15.1 19 Sudoeste 32 Sudoeste 0 998.7 -0.1 77
2018-04-28 01:00:00 15.4 21 Sudoeste 28 Sudoeste 0 998.7 0.2 75
2018-04-28 00:00:00 16 19 Sudoeste 31 Sudoeste 0 998.8 1 73